createdAt,value
2022-08-09T00:00:06.013Z,48.67
2022-08-09T00:02:34.244Z,48.76
2022-08-09T00:06:15.884Z,48.77
2022-08-09T00:07:48.499Z,48.64
2022-08-09T00:10:21.120Z,49.25
2022-08-09T00:12:51.654Z,48.78
2022-08-09T00:15:26.398Z,49.17
2022-08-09T00:18:05.260Z,48.90
2022-08-09T00:20:42.545Z,49.46
2022-08-09T00:23:55.605Z,50.78
2022-08-09T00:26:05.464Z,49.65
2022-08-09T00:28:34.598Z,49.79
2022-08-09T00:31:30.467Z,50.82
2022-08-09T00:33:52.772Z,49.55
2022-08-09T00:36:20.375Z,49.28
2022-08-09T00:38:51.231Z,49.50
2022-08-09T00:44:14.160Z,49.79
2022-08-09T00:44:26.707Z,49.61
2022-08-09T00:47:05.415Z,49.43
2022-08-09T00:49:36.586Z,50.36
2022-08-09T00:52:06.154Z,50.43
2022-08-09T00:54:45.661Z,50.39
2022-08-09T00:57:12.847Z,50.95
2022-08-09T00:59:46.346Z,51.07
2022-08-09T01:02:21.509Z,51.46
2022-08-09T01:04:53.987Z,51.00
2022-08-09T01:07:37.590Z,50.87
2022-08-09T01:10:25.953Z,51.99
2022-08-09T01:13:22.164Z,51.18
2022-08-09T01:15:53.012Z,52.59
2022-08-09T01:18:30.304Z,51.98
2022-08-09T01:21:20.870Z,51.75
2022-08-09T01:24:05.268Z,52.40
2022-08-09T01:27:00.932Z,53.06
2022-08-09T01:29:59.090Z,53.50
2022-08-09T01:32:34.752Z,52.56
2022-08-09T01:35:29.176Z,54.04
2022-08-09T01:38:10.625Z,53.52
2022-08-09T01:40:52.370Z,53.10
2022-08-09T01:43:21.248Z,53.82
2022-08-09T01:45:54.245Z,54.08
2022-08-09T01:48:31.457Z,53.17
2022-08-09T01:50:59.515Z,54.14
2022-08-09T01:53:28.946Z,53.77
2022-08-09T01:56:10.671Z,54.24
2022-08-09T01:58:38.939Z,54.40
2022-08-09T02:01:05.925Z,54.00
2022-08-09T02:03:37.180Z,54.33
2022-08-09T02:06:07.278Z,54.82
2022-08-09T02:08:57.033Z,54.93
2022-08-09T02:11:42.223Z,54.43
2022-08-09T02:14:15.136Z,55.06
2022-08-09T02:16:59.617Z,55.17
2022-08-09T02:19:43.188Z,55.82
2022-08-09T02:22:51.457Z,55.85
2022-08-09T02:25:27.489Z,55.11
2022-08-09T02:28:09.725Z,55.33
2022-08-09T02:30:43.238Z,55.65
2022-08-09T02:33:20.138Z,55.94
2022-08-09T02:36:03.467Z,55.79
2022-08-09T02:38:36.211Z,56.08
2022-08-09T02:41:09.678Z,55.84
2022-08-09T02:43:54.285Z,55.87
2022-08-09T02:46:27.429Z,55.95
2022-08-09T02:48:56.917Z,56.12
2022-08-09T02:51:26.523Z,56.89
2022-08-09T02:54:00.765Z,56.57
2022-08-09T02:56:30.400Z,56.64
2022-08-09T02:58:59.444Z,57.28
2022-08-09T03:01:29.054Z,56.27
2022-08-09T03:04:17.503Z,56.24
2022-08-09T03:06:45.540Z,56.58
2022-08-09T03:09:14.349Z,56.02
2022-08-09T03:12:05.971Z,57.12
2022-08-09T03:14:31.993Z,57.31
2022-08-09T03:17:01.910Z,56.27
2022-08-09T03:19:58.529Z,56.32
2022-08-09T03:22:25.129Z,57.18
2022-08-09T03:25:26.621Z,57.47
2022-08-09T03:27:55.587Z,57.94
2022-08-09T03:30:30.235Z,57.51
2022-08-09T03:33:05.798Z,57.75
2022-08-09T03:35:44.379Z,57.91
2022-08-09T03:38:30.265Z,57.83
2022-08-09T03:40:57.987Z,59.16
2022-08-09T03:43:25.036Z,58.49
2022-08-09T03:46:03.298Z,57.75
2022-08-09T03:48:34.154Z,58.66
2022-08-09T03:51:07.341Z,58.75
2022-08-09T03:53:54.099Z,58.50
2022-08-09T03:56:20.879Z,58.73
2022-08-09T03:58:47.829Z,58.69
2022-08-09T04:01:17.823Z,59.36
2022-08-09T04:04:02.190Z,60.31
2022-08-09T04:06:31.503Z,59.08
2022-08-09T04:08:58.194Z,59.73
2022-08-09T04:11:25.010Z,59.88
2022-08-09T04:14:52.925Z,60.33
2022-08-09T04:16:38.942Z,60.04
2022-08-09T04:19:11.149Z,60.13
2022-08-09T04:21:42.655Z,60.33
2022-08-09T04:24:09.318Z,60.04
2022-08-09T04:26:38.408Z,61.17
2022-08-09T04:29:10.955Z,60.16
2022-08-09T04:31:47.303Z,60.53
2022-08-09T04:34:14.299Z,60.03
2022-08-09T04:36:50.294Z,59.80
2022-08-09T04:39:17.278Z,60.46
2022-08-09T04:41:44.403Z,59.78
2022-08-09T04:44:14.721Z,60.16
2022-08-09T04:46:59.517Z,60.30
2022-08-09T04:49:54.423Z,61.63
2022-08-09T04:52:26.804Z,60.79
2022-08-09T04:55:01.670Z,61.60
2022-08-09T04:57:58.938Z,60.44
2022-08-09T05:00:16.880Z,60.73
2022-08-09T05:02:44.357Z,60.62
2022-08-09T05:05:18.936Z,60.95
2022-08-09T05:07:59.423Z,61.24
2022-08-09T05:10:27.143Z,61.10
2022-08-09T05:12:53.736Z,60.55
2022-08-09T05:15:24.873Z,60.84
2022-08-09T05:18:38.008Z,60.78
2022-08-09T05:20:52.673Z,60.08
2022-08-09T05:23:56.965Z,60.40
2022-08-09T05:26:06.733Z,61.05
2022-08-09T05:28:34.131Z,61.21
2022-08-09T05:31:01.286Z,61.28
2022-08-09T05:33:36.411Z,60.03
2022-08-09T05:36:09.214Z,60.59
2022-08-09T05:38:39.075Z,60.40
2022-08-09T05:41:06.170Z,61.93
2022-08-09T05:43:39.317Z,60.02
2022-08-09T05:46:13.475Z,59.69
2022-08-09T05:48:40.161Z,59.59
2022-08-09T05:51:30.125Z,60.19
2022-08-09T05:53:57.904Z,58.99
2022-08-09T05:56:26.040Z,58.87
2022-08-09T05:58:58.267Z,59.09
2022-08-09T06:01:33.960Z,59.50
2022-08-09T06:04:09.629Z,59.44
2022-08-09T06:06:41.639Z,58.12
2022-08-09T06:09:41.085Z,61.89
2022-08-09T06:11:58.746Z,57.22
2022-08-09T06:14:26.221Z,61.77
2022-08-09T06:16:55.433Z,59.86
2022-08-09T06:19:24.015Z,57.52
2022-08-09T06:21:58.315Z,53.94
2022-08-09T06:24:25.650Z,52.53
2022-08-09T06:26:52.512Z,53.45
2022-08-09T06:29:19.135Z,56.26
2022-08-09T06:32:09.057Z,51.45
2022-08-09T06:34:34.822Z,50.22
2022-08-09T06:37:03.490Z,48.79
2022-08-09T06:39:49.069Z,48.29
2022-08-09T06:42:30.605Z,47.01
2022-08-09T06:44:59.215Z,46.40
2022-08-09T06:47:29.923Z,45.00
2022-08-09T06:50:13.783Z,44.21
2022-08-09T06:52:46.924Z,44.73
2022-08-09T06:55:14.963Z,44.29
2022-08-09T06:58:01.625Z,42.27
2022-08-09T07:00:56.084Z,43.06
2022-08-09T07:03:16.106Z,43.63
2022-08-09T07:05:58.522Z,41.74
2022-08-09T07:08:30.636Z,41.90
2022-08-09T07:10:57.434Z,41.88
2022-08-09T07:13:28.036Z,40.91
2022-08-09T07:16:41.317Z,41.11
2022-08-09T07:18:43.171Z,40.89
2022-08-09T07:21:10.379Z,39.80
2022-08-09T07:23:56.527Z,40.42
2022-08-09T07:26:24.784Z,39.23
2022-08-09T07:29:08.663Z,42.23
2022-08-09T07:31:45.432Z,39.71
2022-08-09T07:34:20.492Z,39.27
2022-08-09T07:36:49.083Z,43.38
2022-08-09T07:39:20.262Z,37.51
2022-08-09T07:42:02.677Z,41.04
2022-08-09T07:44:51.187Z,37.18
2022-08-09T07:47:16.450Z,37.02
2022-08-09T07:50:05.347Z,37.84
2022-08-09T07:52:30.359Z,37.39
2022-08-09T07:54:57.540Z,37.17
2022-08-09T07:57:33.858Z,37.28
2022-08-09T08:00:03.377Z,35.23
2022-08-09T08:02:30.843Z,42.12
2022-08-09T08:04:57.538Z,35.28
2022-08-09T08:09:00.309Z,36.41
2022-08-09T08:10:12.647Z,35.67
2022-08-09T08:12:45.166Z,36.35
2022-08-09T08:15:17.864Z,35.81
2022-08-09T08:17:53.790Z,34.66
2022-08-09T08:20:28.494Z,33.81
2022-08-09T08:23:01.397Z,34.95
2022-08-09T08:25:43.787Z,34.10
2022-08-09T08:28:14.337Z,34.33
2022-08-09T08:30:41.856Z,34.75
2022-08-09T08:33:11.888Z,34.90
2022-08-09T08:35:59.685Z,36.84
2022-08-09T08:38:26.114Z,33.78
2022-08-09T08:40:56.693Z,31.69
2022-08-09T08:43:24.683Z,31.63
2022-08-09T08:46:10.161Z,32.60
2022-08-09T08:48:51.640Z,38.41
2022-08-09T08:51:21.362Z,31.97
2022-08-09T08:54:03.717Z,38.46
2022-08-09T08:56:34.220Z,27.85
2022-08-09T08:59:07.976Z,30.73
2022-08-09T09:01:53.423Z,27.35
2022-08-09T09:04:29.979Z,32.84
2022-08-09T09:07:08.171Z,27.02
2022-08-09T09:09:57.826Z,27.27
2022-08-09T09:12:29.626Z,27.83
2022-08-09T09:15:00.195Z,28.63
2022-08-09T09:17:48.229Z,28.45
2022-08-09T09:20:15.514Z,28.92
2022-08-09T09:22:53.006Z,32.78
2022-08-09T09:26:04.562Z,27.09
2022-08-09T09:29:02.212Z,26.47
2022-08-09T09:32:03.492Z,33.45
2022-08-09T09:34:14.229Z,26.49
2022-08-09T09:36:51.138Z,27.03
2022-08-09T09:39:25.691Z,28.36
2022-08-09T09:42:24.720Z,25.13
2022-08-09T09:45:03.160Z,35.33
2022-08-09T09:47:32.727Z,27.01
2022-08-09T09:50:14.405Z,27.64
2022-08-09T09:52:56.247Z,24.80
2022-08-09T09:55:32.698Z,24.17
2022-08-09T09:58:12.568Z,26.07
2022-08-09T10:00:50.312Z,31.17
2022-08-09T10:03:57.829Z,24.28
2022-08-09T10:06:52.031Z,22.90
2022-08-09T10:09:22.402Z,31.90
2022-08-09T10:12:12.584Z,22.84
2022-08-09T10:14:51.311Z,31.93
2022-08-09T10:17:50.217Z,25.46
2022-08-09T10:20:27.747Z,23.00
2022-08-09T10:23:13.430Z,23.79
2022-08-09T10:26:07.147Z,22.43
2022-08-09T10:28:32.984Z,22.50
2022-08-09T10:34:10.791Z,22.13
2022-08-09T10:36:35.650Z,25.57
2022-08-09T10:39:02.881Z,25.75
2022-08-09T10:41:32.903Z,25.46
2022-08-09T10:44:03.974Z,25.75
2022-08-09T10:46:30.533Z,24.05
2022-08-09T10:49:50.978Z,29.35
2022-08-09T10:52:53.411Z,20.19
2022-08-09T10:55:24.410Z,20.19
2022-08-09T10:57:52.384Z,20.89
2022-08-09T11:00:32.701Z,20.97
2022-08-09T11:03:14.820Z,21.47
2022-08-09T11:06:18.715Z,19.63
2022-08-09T11:08:51.299Z,20.55
2022-08-09T11:11:20.491Z,20.44
2022-08-09T11:13:50.296Z,21.94
2022-08-09T11:16:37.435Z,19.89
2022-08-09T11:19:10.342Z,20.01
2022-08-09T11:21:57.428Z,20.84
2022-08-09T11:25:10.344Z,20.59
2022-08-09T11:28:04.431Z,20.59
2022-08-09T11:30:33.605Z,21.39
2022-08-09T11:33:03.729Z,20.22
2022-08-09T11:36:00.920Z,21.00
2022-08-09T11:38:34.090Z,20.22
2022-08-09T11:41:38.296Z,21.19
2022-08-09T11:44:08.158Z,25.40
2022-08-09T11:46:55.303Z,20.96
2022-08-09T11:50:56.583Z,20.62
2022-08-09T11:53:58.109Z,23.52
2022-08-09T11:55:52.215Z,19.45
2022-08-09T11:58:30.366Z,21.95
2022-08-09T12:01:15.427Z,21.79
2022-08-09T12:04:00.741Z,20.51
2022-08-09T12:06:32.562Z,19.08
2022-08-09T12:09:17.595Z,22.35
2022-08-09T12:12:03.336Z,23.84
2022-08-09T12:14:40.724Z,19.26
2022-08-09T12:17:27.524Z,19.30
2022-08-09T12:20:16.593Z,21.35
2022-08-09T12:22:52.662Z,19.19
2022-08-09T12:25:36.473Z,24.85
2022-08-09T12:29:00.355Z,19.37
2022-08-09T12:31:31.149Z,18.51
2022-08-09T12:34:08.575Z,26.52
2022-08-09T12:36:59.115Z,20.92
2022-08-09T12:39:42.699Z,18.37
2022-08-09T12:42:16.179Z,18.23
2022-08-09T12:44:46.296Z,19.70
2022-08-09T12:47:22.821Z,20.43
2022-08-09T12:50:09.313Z,19.37
2022-08-09T12:53:09.108Z,18.59
2022-08-09T12:56:14.860Z,23.22
2022-08-09T12:58:24.187Z,18.95
2022-08-09T13:00:53.965Z,18.72
2022-08-09T13:03:53.984Z,22.57
2022-08-09T13:06:48.553Z,19.10
2022-08-09T13:09:25.084Z,17.89
2022-08-09T13:12:01.978Z,19.46
2022-08-09T13:14:41.766Z,22.09
2022-08-09T13:17:43.971Z,17.67
2022-08-09T13:20:14.257Z,19.19
2022-08-09T13:23:01.684Z,18.20
2022-08-09T13:25:42.448Z,19.38
2022-08-09T13:28:18.992Z,19.70
2022-08-09T13:32:13.532Z,19.05
2022-08-09T13:33:54.419Z,19.75
2022-08-09T13:36:38.170Z,20.07
2022-08-09T13:41:54.739Z,21.67
2022-08-09T13:42:12.582Z,20.57
2022-08-09T13:44:41.962Z,19.25
2022-08-09T13:47:28.963Z,19.65
2022-08-09T13:50:12.417Z,22.40
2022-08-09T13:52:39.899Z,20.17
2022-08-09T13:55:13.644Z,22.08
2022-08-09T13:57:56.209Z,19.91
2022-08-09T14:00:28.313Z,21.82
2022-08-09T14:03:03.366Z,20.58
2022-08-09T14:05:56.544Z,18.47
2022-08-09T14:08:28.257Z,20.35
2022-08-09T14:10:55.972Z,21.35
2022-08-09T14:14:15.539Z,21.03
2022-08-09T14:16:16.821Z,19.97
2022-08-09T14:18:49.428Z,22.01
2022-08-09T14:21:23.382Z,20.96
2022-08-09T14:23:57.103Z,21.00
2022-08-09T14:26:31.710Z,21.27
2022-08-09T14:29:02.056Z,19.79
2022-08-09T14:31:36.277Z,20.99
2022-08-09T14:34:17.742Z,19.84
2022-08-09T14:36:58.976Z,22.76
2022-08-09T14:39:45.817Z,21.14
2022-08-09T14:42:31.698Z,21.30
2022-08-09T14:46:51.435Z,20.20
2022-08-09T14:47:59.615Z,20.09
2022-08-09T14:50:32.367Z,19.84
2022-08-09T14:53:11.607Z,19.53
2022-08-09T14:55:42.130Z,19.95
2022-08-09T14:58:09.463Z,19.66
2022-08-09T15:00:37.033Z,20.02
2022-08-09T15:03:08.961Z,21.92
2022-08-09T15:05:38.470Z,19.78
2022-08-09T15:08:06.569Z,20.66
2022-08-09T15:10:38.205Z,19.68
2022-08-09T15:13:05.816Z,20.96
2022-08-09T15:15:39.222Z,20.58
2022-08-09T15:18:08.209Z,20.31
2022-08-09T15:21:57.535Z,20.44
2022-08-09T15:24:01.309Z,21.44
2022-08-09T15:26:19.243Z,19.76
2022-08-09T15:28:57.744Z,20.60
2022-08-09T15:31:41.450Z,20.86
2022-08-09T15:34:33.247Z,20.55
2022-08-09T15:36:58.101Z,20.73
2022-08-09T15:39:25.292Z,20.60
2022-08-09T15:42:01.581Z,20.28
2022-08-09T15:44:28.252Z,21.13
2022-08-09T15:46:59.412Z,19.64
2022-08-09T15:49:27.582Z,20.07
2022-08-09T15:52:04.726Z,19.90
2022-08-09T15:54:49.109Z,21.70
2022-08-09T15:57:19.094Z,20.46
2022-08-09T16:00:02.453Z,21.64
2022-08-09T16:02:29.070Z,23.24
2022-08-09T16:04:55.667Z,20.66
2022-08-09T16:07:22.566Z,21.11
2022-08-09T16:10:04.131Z,20.84
2022-08-09T16:12:32.971Z,21.82
2022-08-09T16:15:01.269Z,22.22
2022-08-09T16:17:28.820Z,22.08
2022-08-09T16:20:04.704Z,22.43
2022-08-09T16:22:42.259Z,22.20
2022-08-09T16:25:11.503Z,22.11
2022-08-09T16:27:40.617Z,23.63
2022-08-09T16:30:15.302Z,22.67
2022-08-09T16:33:11.566Z,22.42
2022-08-09T16:35:57.416Z,21.97
2022-08-09T16:38:27.739Z,22.35
2022-08-09T16:40:56.522Z,22.10
2022-08-09T16:43:24.479Z,22.07
2022-08-09T16:45:54.036Z,22.00
2022-08-09T16:48:38.673Z,21.79
2022-08-09T16:51:14.337Z,23.52
2022-08-09T16:54:09.015Z,22.65
2022-08-09T16:56:31.017Z,22.81
2022-08-09T16:58:58.894Z,23.20
2022-08-09T17:01:25.730Z,22.92
2022-08-09T17:03:54.366Z,22.61
2022-08-09T17:06:28.877Z,22.89
2022-08-09T17:09:44.519Z,23.33
2022-08-09T17:11:51.324Z,23.62
2022-08-09T17:14:27.552Z,23.91
2022-08-09T17:17:02.840Z,23.91
2022-08-09T17:19:47.687Z,24.66
2022-08-09T17:22:23.909Z,24.61
2022-08-09T17:24:55.798Z,23.59
2022-08-09T17:27:32.052Z,23.57
2022-08-09T17:29:58.641Z,24.82
2022-08-09T17:32:37.008Z,24.81
2022-08-09T17:35:11.179Z,24.84
2022-08-09T17:38:02.703Z,25.37
2022-08-09T17:40:31.890Z,26.11
2022-08-09T17:43:10.930Z,25.50
2022-08-09T17:46:03.288Z,26.08
2022-08-09T17:48:33.945Z,25.56
2022-08-09T17:51:10.231Z,25.55
2022-08-09T17:53:47.921Z,25.68
2022-08-09T17:56:27.469Z,26.12
2022-08-09T17:59:00.962Z,26.76
2022-08-09T18:02:03.572Z,27.02
2022-08-09T18:04:20.241Z,26.68
2022-08-09T18:06:54.412Z,27.21
2022-08-09T18:09:22.821Z,27.27
2022-08-09T18:12:14.399Z,27.43
2022-08-09T18:14:50.041Z,28.87
2022-08-09T18:17:27.146Z,29.24
2022-08-09T18:21:00.240Z,28.92
2022-08-09T18:22:56.484Z,28.90
2022-08-09T18:25:50.274Z,29.17
2022-08-09T18:28:21.603Z,29.35
2022-08-09T18:30:58.458Z,30.01
2022-08-09T18:33:25.854Z,29.89
2022-08-09T18:35:59.163Z,29.90
2022-08-09T18:38:27.540Z,30.13
2022-08-09T18:40:55.665Z,30.47
2022-08-09T18:43:23.609Z,31.42
2022-08-09T18:46:47.909Z,31.61
2022-08-09T18:48:37.409Z,32.77
2022-08-09T18:51:04.676Z,31.44
2022-08-09T18:53:56.156Z,31.90
2022-08-09T18:56:27.923Z,31.72
2022-08-09T18:58:56.362Z,32.23
2022-08-09T19:01:23.614Z,32.25
2022-08-09T19:04:01.514Z,32.52
2022-08-09T19:06:33.891Z,32.51
2022-08-09T19:09:02.855Z,32.76
2022-08-09T19:11:37.565Z,33.26
2022-08-09T19:14:06.440Z,33.97
2022-08-09T19:16:36.299Z,33.36
2022-08-09T19:19:21.373Z,33.55
2022-08-09T19:22:04.239Z,35.25
2022-08-09T19:24:39.423Z,34.03
2022-08-09T19:27:20.746Z,33.87
2022-08-09T19:30:25.175Z,34.56
2022-08-09T19:32:36.103Z,34.65
2022-08-09T19:35:04.391Z,34.96
2022-08-09T19:37:40.870Z,35.40
2022-08-09T19:40:19.311Z,35.52
2022-08-09T19:42:47.551Z,35.82
2022-08-09T19:45:16.670Z,36.02
2022-08-09T19:47:44.492Z,36.13
2022-08-09T19:50:49.620Z,36.20
2022-08-09T19:52:59.661Z,37.40
2022-08-09T19:56:02.470Z,37.63
2022-08-09T19:58:17.784Z,37.51
2022-08-09T20:00:56.645Z,37.16
2022-08-09T20:04:23.813Z,37.29
2022-08-09T20:06:23.359Z,36.90
2022-08-09T20:08:57.353Z,36.89
2022-08-09T20:11:42.837Z,36.64
2022-08-09T20:14:16.425Z,37.00
2022-08-09T20:16:54.029Z,37.67
2022-08-09T20:19:46.324Z,37.73
2022-08-09T20:22:10.078Z,37.85
2022-08-09T20:24:41.069Z,37.89
2022-08-09T20:27:08.930Z,38.05
2022-08-09T20:29:39.076Z,38.13
2022-08-09T20:32:33.370Z,37.82
2022-08-09T20:34:57.659Z,38.11
2022-08-09T20:37:25.244Z,38.47
2022-08-09T20:40:15.322Z,38.42
2022-08-09T20:42:46.506Z,38.99
2022-08-09T20:45:59.669Z,39.34
2022-08-09T20:48:13.458Z,39.93
2022-08-09T20:50:50.342Z,40.12
2022-08-09T20:53:35.641Z,40.13
2022-08-09T20:56:08.696Z,40.36
2022-08-09T20:58:36.166Z,40.71
2022-08-09T21:01:33.412Z,40.22
2022-08-09T21:05:48.781Z,40.61
2022-08-09T21:06:42.658Z,40.14
2022-08-09T21:09:13.554Z,40.71
2022-08-09T21:14:31.069Z,40.97
2022-08-09T21:16:59.472Z,41.47
2022-08-09T21:20:17.808Z,41.60
2022-08-09T21:22:36.213Z,41.37
2022-08-09T21:25:20.795Z,41.48
2022-08-09T21:27:51.711Z,41.50
2022-08-09T21:30:19.614Z,41.70
2022-08-09T21:32:49.402Z,41.82
2022-08-09T21:35:17.124Z,41.56
2022-08-09T21:37:58.870Z,41.82
2022-08-09T21:40:30.742Z,42.19
2022-08-09T21:43:04.305Z,42.56
2022-08-09T21:45:39.071Z,43.17
2022-08-09T21:48:07.414Z,42.48
2022-08-09T21:50:38.581Z,43.19
2022-08-09T21:53:23.867Z,42.79
2022-08-09T21:55:53.878Z,42.46
2022-08-09T21:58:20.484Z,42.58
2022-08-09T22:00:48.755Z,42.54
2022-08-09T22:03:25.210Z,42.85
2022-08-09T22:05:52.737Z,42.99
2022-08-09T22:08:24.579Z,43.10
2022-08-09T22:11:49.711Z,43.48
2022-08-09T22:13:39.231Z,43.17
2022-08-09T22:16:10.625Z,43.11
2022-08-09T22:18:44.108Z,43.46
2022-08-09T22:21:24.235Z,42.19
2022-08-09T22:23:59.497Z,42.67
2022-08-09T22:26:35.480Z,42.80
2022-08-09T22:29:09.177Z,42.69
2022-08-09T22:31:37.678Z,42.43
2022-08-09T22:34:09.837Z,42.07
2022-08-09T22:36:46.451Z,42.24
2022-08-09T22:39:46.591Z,42.26
2022-08-09T22:42:02.644Z,42.41
2022-08-09T22:44:29.843Z,42.15
2022-08-09T22:48:13.622Z,42.24
2022-08-09T22:49:46.521Z,42.88
2022-08-09T22:52:13.190Z,41.84
2022-08-09T22:54:42.452Z,42.28
2022-08-09T22:57:13.968Z,42.92
2022-08-09T22:59:55.325Z,42.17
2022-08-09T23:02:25.239Z,43.04
2022-08-09T23:04:53.938Z,42.75
2022-08-09T23:08:21.999Z,42.80
2022-08-09T23:10:27.814Z,42.46
2022-08-09T23:12:54.461Z,42.53
2022-08-09T23:15:21.094Z,42.18
2022-08-09T23:17:47.741Z,42.92
2022-08-09T23:20:14.348Z,42.34
2022-08-09T23:22:41.031Z,43.06
2022-08-09T23:25:07.937Z,42.77
2022-08-09T23:27:34.808Z,42.69
2022-08-09T23:30:01.691Z,42.88
2022-08-09T23:32:28.268Z,42.90
2022-08-09T23:34:55.105Z,42.48
2022-08-09T23:37:22.747Z,42.68
2022-08-09T23:39:52.245Z,42.95
2022-08-09T23:42:19.074Z,42.76
2022-08-09T23:44:45.695Z,42.76
2022-08-09T23:47:12.448Z,42.78
2022-08-09T23:49:39.094Z,42.75
2022-08-09T23:52:05.800Z,42.84
2022-08-09T23:54:32.468Z,43.19
2022-08-09T23:56:59.222Z,43.19
2022-08-09T23:59:46.025Z,43.34
